Rotterdam Express — DMRX — position and weather

sailwx.info

Track history (hours):
 
Tides and Currents Weather Stations Pressure Air Temp Water Temp Dewpoint Dewpoint Depression Visibility Wind Speed Wind Dir Waves Ship Positions

Rotterdam Express

Last reported at 2014-Aug-30 15:24 UTC. Time now 2014-Aug-30 16:31 UTC.
Position N 49°45' W 000°38'.

Length 294 m; beam 32.2 m; draft 13.6 m.

Type: Ship. MMSI: 211335760.

Date/timePositionNaut miles runAvg speedWind from/ knotsBaromVisibWave heightAir tempDewpointWater temp
2014-Aug-30 15:24N 49°45' W 000°38'1416.7
2014-Aug-30 14:33N 49°36' W 000°21'1514.5
2014-Aug-30 13:33N 49°30' W 000°00'7 6.5
2014-Aug-30 12:33N 49°28' E 000°09'0 0.0
2014-Aug-30 11:33N 49°28' E 000°09'0 0.0
2014-Aug-30 10:33N 49°28' E 000°09'0 0.0
2014-Aug-30 09:33N 49°28' E 000°09'0 0.0
2014-Aug-30 08:33N 49°28' E 000°09'0 0.0
2014-Aug-30 07:33N 49°28' E 000°09'0 0.0
2014-Aug-30 06:33N 49°28' E 000°09'0 0.0
2014-Aug-30 05:33N 49°28' E 000°09'0 0.0
2014-Aug-30 04:33N 49°28' E 000°09'0 0.0
2014-Aug-30 03:33N 49°28' E 000°09'0 0.0
2014-Aug-30 02:33N 49°28' E 000°09'0 0.0
2014-Aug-30 01:33N 49°28' E 000°09'0 0.0
2014-Aug-30 00:33N 49°28' E 000°09'0 0.0
2014-Aug-29 23:33N 49°28' E 000°09'0 0.0
2014-Aug-29 22:33N 49°28' E 000°09'0 0.0
2014-Aug-29 21:33N 49°28' E 000°09'0 0.0
2014-Aug-29 20:33N 49°28' E 000°09'0 0.0
2014-Aug-29 19:33N 49°28' E 000°09'0 0.0
2014-Aug-29 18:32N 49°28' E 000°09'0 0.0
2014-Aug-29 17:31N 49°28' E 000°09'0 0.0
2014-Aug-29 16:32N 49°28' E 000°09'0 0.0
2014-Aug-29 15:33N 49°28' E 000°09'0 0.0
2014-Aug-29 14:33N 49°28' E 000°09'0 0.0
2014-Aug-29 13:32N 49°28' E 000°09'0 0.0
2014-Aug-29 12:33N 49°28' E 000°09'1110.5
2014-Aug-29 11:33N 49°31' W 000°06'1010.0
2014-Aug-29 10:33N 49°41' W 000°11'5814.4
2014-Aug-29 06:33N 50°33' E 000°27'1918.9
2014-Aug-29 05:33N 50°43' E 000°52'2418.2
2014-Aug-29 04:14N 50°58' E 001°23'1116.0
2014-Aug-29 03:32N 51°06' E 001°34'1515.1
2014-Aug-29 02:34N 51°17' E 001°50'1616.1
2014-Aug-29 01:34N 51°31' E 002°04'1717.4
2014-Aug-29 00:33N 51°43' E 002°23'610.9
2014-Aug-29 00:00N 51°48' E 002°30'3722.2 260 / 231012.5 5.4 17.013.718.0
2014-Aug-28 22:18N 52°18' E 003°06'1819.6
2014-Aug-28 21:22N 52°33' E 003°24'1619.2
2014-Aug-28 20:33N 52°45' E 003°41'1818.3
2014-Aug-28 19:33N 52°59' E 003°60'1717.5
2014-Aug-28 18:33N 53°09' E 004°23'12217.4
2014-Aug-28 11:33N 53°60' E 007°31'1714.1
2014-Aug-28 10:19N 53°52' E 007°57'1113.9
2014-Aug-28 09:33N 53°46' E 008°12'1413.8
2014-Aug-28 08:33N 53°37' E 008°30'2 2.0
2014-Aug-28 07:29N 53°35' E 008°32'0 0.0
2014-Aug-28 06:32N 53°35' E 008°32'0 0.0
2014-Aug-28 05:32N 53°35' E 008°32'0 0.0
2014-Aug-28 04:33N 53°35' E 008°32'0 0.0
2014-Aug-28 03:33N 53°35' E 008°32'0 0.0
2014-Aug-28 02:32N 53°35' E 008°32'0 0.0
2014-Aug-28 01:32N 53°35' E 008°32'0 0.0
2014-Aug-28 00:33N 53°35' E 008°32'0 0.0
2014-Aug-27 23:32N 53°35' E 008°32'0 0.0
2014-Aug-27 22:30N 53°35' E 008°32'0 0.0
2014-Aug-27 21:32N 53°35' E 008°32'0 0.0
2014-Aug-27 20:32N 53°35' E 008°32'0 0.0
2014-Aug-27 19:29N 53°35' E 008°32'0 0.0
2014-Aug-27 18:32N 53°35' E 008°32'0 0.0
2014-Aug-27 17:29N 53°35' E 008°32'0 0.0
2014-Aug-27 16:32N 53°35' E 008°32'0 0.0
2014-Aug-27 15:26N 53°35' E 008°32'0 0.0
2014-Aug-27 14:32N 53°35' E 008°32'0 0.0
2014-Aug-27 13:06N 53°35' E 008°32'0 0.0
2014-Aug-27 12:32N 53°35' E 008°32'0 0.3
2014-Aug-27 11:34N 53°35' E 008°32'1111.2
2014-Aug-27 10:33N 53°43' E 008°18'9415.7
2014-Aug-27 04:33N 53°37' E 005°40'1615.4
2014-Aug-27 03:32N 53°32' E 005°15'1515.5
2014-Aug-27 02:33N 53°26' E 004°51'2914.8
2014-Aug-27 00:33N 53°02' E 004°23'10713.3
2014-Aug-26 16:31N 51°24' E 003°13'1515.0
2014-Aug-26 15:31N 51°26' E 003°36'1211.6
2014-Aug-26 14:30N 51°21' E 003°54'6 6.3
2014-Aug-26 13:30N 51°22' E 004°04'8 8.5
2014-Aug-26 12:32N 51°20' E 004°16'0 0.2
2014-Aug-26 10:29N 51°20' E 004°17'0 0.0
2014-Aug-26 09:28N 51°20' E 004°17'0 0.0
2014-Aug-26 08:31N 51°20' E 004°17'0 0.0
2014-Aug-26 07:25N 51°20' E 004°17'0 0.0
2014-Aug-26 06:21N 51°20' E 004°17'0 0.0
2014-Aug-26 05:29N 51°20' E 004°17'0 0.0
2014-Aug-26 04:33N 51°20' E 004°17'0 0.0
2014-Aug-26 03:33N 51°20' E 004°17'0 0.0
2014-Aug-26 02:33N 51°20' E 004°17'0 0.0
2014-Aug-26 01:33N 51°20' E 004°17'0 0.0
2014-Aug-26 00:33N 51°20' E 004°17'0 0.0
2014-Aug-25 23:33N 51°20' E 004°17'0 0.0
2014-Aug-25 22:33N 51°20' E 004°17'0 0.0
2014-Aug-25 21:33N 51°20' E 004°17'0 0.0
2014-Aug-25 20:33N 51°20' E 004°17'0 0.0
2014-Aug-25 19:31N 51°20' E 004°17'0 0.0
2014-Aug-25 18:33N 51°20' E 004°17'0 0.0
2014-Aug-25 17:33N 51°20' E 004°17'0 0.0
2014-Aug-25 16:33N 51°20' E 004°17'0 0.0
2014-Aug-25 15:33N 51°20' E 004°17'0 0.0
2014-Aug-25 14:34N 51°20' E 004°17'0 0.0
2014-Aug-25 13:33N 51°20' E 004°17'0 0.0
2014-Aug-25 12:32N 51°20' E 004°17'0 0.0
2014-Aug-25 11:31N 51°20' E 004°17'0 0.0
2014-Aug-25 10:33N 51°20' E 004°17'5 4.5
2014-Aug-25 09:32N 51°24' E 004°12'9 9.3
2014-Aug-25 08:33N 51°24' E 003°58'10 9.5
2014-Aug-25 07:33N 51°25' E 003°42'9 9.4
2014-Aug-25 06:33N 51°25' E 003°27'1413.7
2014-Aug-25 05:33N 51°24' E 003°06'1413.9
2014-Aug-25 04:32N 51°22' E 002°43'4 3.8
2014-Aug-25 03:32N 51°22' E 002°37'1110.8
2014-Aug-25 02:33N 51°19' E 002°20'1515.1
2014-Aug-25 01:34N 51°12' E 001°60'1615.8
2014-Aug-25 00:33N 51°02' E 001°39'6115.0
2014-Aug-24 20:27N 50°22' E 000°26'4514.0
2014-Aug-24 17:14N 50°27' W 000°45'1014.4
2014-Aug-24 16:33N 50°35' W 000°53'1211.7
2014-Aug-24 15:33N 50°44' W 001°04'1111.1
2014-Aug-24 14:33N 50°50' W 001°19'6 6.3
2014-Aug-24 13:33N 50°54' W 001°27'1 0.7
2014-Aug-24 12:33N 50°55' W 001°28'0 0.0
2014-Aug-24 11:33N 50°55' W 001°28'0 0.0
2014-Aug-24 10:32N 50°55' W 001°28'0 0.0
2014-Aug-24 09:32N 50°55' W 001°28'0 0.0
2014-Aug-23 20:32N 50°55' W 001°28'0 0.0
2014-Aug-23 19:32N 50°55' W 001°28'50110.1
2014-Aug-21 18:00N 49°42' W 014°24'42017.5 280 / 181018.510.8 1.017.011.418.0
2014-Aug-20 18:00N 49°00' W 025°06'   070 / 151023.810.8 1.019.015.017.0
Track history (hours):
 
Tides and Currents Weather Stations Pressure Air Temp Water Temp Dewpoint Dewpoint Depression Visibility Wind Speed Wind Dir Waves Ship Positions

Rotterdam Express

Last reported at 2014-Aug-30 15:24 UTC. Time now 2014-Aug-30 16:31 UTC.
Position N 49°45' W 000°38'.

Length 294 m; beam 32.2 m; draft 13.6 m.

Type: Ship. MMSI: 211335760.

Date/timePositionNaut miles runAvg speedWind from/ knotsBaromVisibWave heightAir tempDewpointWater temp
2014-Aug-30 15:24N 49°45' W 000°38'1416.7
2014-Aug-30 14:33N 49°36' W 000°21'1514.5
2014-Aug-30 13:33N 49°30' W 000°00'7 6.5
2014-Aug-30 12:33N 49°28' E 000°09'0 0.0
2014-Aug-30 11:33N 49°28' E 000°09'0 0.0
2014-Aug-30 10:33N 49°28' E 000°09'0 0.0
2014-Aug-30 09:33N 49°28' E 000°09'0 0.0
2014-Aug-30 08:33N 49°28' E 000°09'0 0.0
2014-Aug-30 07:33N 49°28' E 000°09'0 0.0
2014-Aug-30 06:33N 49°28' E 000°09'0 0.0
2014-Aug-30 05:33N 49°28' E 000°09'0 0.0
2014-Aug-30 04:33N 49°28' E 000°09'0 0.0
2014-Aug-30 03:33N 49°28' E 000°09'0 0.0
2014-Aug-30 02:33N 49°28' E 000°09'0 0.0
2014-Aug-30 01:33N 49°28' E 000°09'0 0.0
2014-Aug-30 00:33N 49°28' E 000°09'0 0.0
2014-Aug-29 23:33N 49°28' E 000°09'0 0.0
2014-Aug-29 22:33N 49°28' E 000°09'0 0.0
2014-Aug-29 21:33N 49°28' E 000°09'0 0.0
2014-Aug-29 20:33N 49°28' E 000°09'0 0.0
2014-Aug-29 19:33N 49°28' E 000°09'0 0.0
2014-Aug-29 18:32N 49°28' E 000°09'0 0.0
2014-Aug-29 17:31N 49°28' E 000°09'0 0.0
2014-Aug-29 16:32N 49°28' E 000°09'0 0.0
2014-Aug-29 15:33N 49°28' E 000°09'0 0.0
2014-Aug-29 14:33N 49°28' E 000°09'0 0.0
2014-Aug-29 13:32N 49°28' E 000°09'0 0.0
2014-Aug-29 12:33N 49°28' E 000°09'1110.5
2014-Aug-29 11:33N 49°31' W 000°06'1010.0
2014-Aug-29 10:33N 49°41' W 000°11'5814.4
2014-Aug-29 06:33N 50°33' E 000°27'1918.9
2014-Aug-29 05:33N 50°43' E 000°52'2418.2
2014-Aug-29 04:14N 50°58' E 001°23'1116.0
2014-Aug-29 03:32N 51°06' E 001°34'1515.1
2014-Aug-29 02:34N 51°17' E 001°50'1616.1
2014-Aug-29 01:34N 51°31' E 002°04'1717.4
2014-Aug-29 00:33N 51°43' E 002°23'610.9
2014-Aug-29 00:00N 51°48' E 002°30'3722.2 260 / 231012.5 5.4 17.013.718.0
2014-Aug-28 22:18N 52°18' E 003°06'1819.6
2014-Aug-28 21:22N 52°33' E 003°24'1619.2
2014-Aug-28 20:33N 52°45' E 003°41'1818.3
2014-Aug-28 19:33N 52°59' E 003°60'1717.5
2014-Aug-28 18:33N 53°09' E 004°23'12217.4
2014-Aug-28 11:33N 53°60' E 007°31'1714.1
2014-Aug-28 10:19N 53°52' E 007°57'1113.9
2014-Aug-28 09:33N 53°46' E 008°12'1413.8
2014-Aug-28 08:33N 53°37' E 008°30'2 2.0
2014-Aug-28 07:29N 53°35' E 008°32'0 0.0
2014-Aug-28 06:32N 53°35' E 008°32'0 0.0
2014-Aug-28 05:32N 53°35' E 008°32'0 0.0
2014-Aug-28 04:33N 53°35' E 008°32'0 0.0
2014-Aug-28 03:33N 53°35' E 008°32'0 0.0
2014-Aug-28 02:32N 53°35' E 008°32'0 0.0
2014-Aug-28 01:32N 53°35' E 008°32'0 0.0
2014-Aug-28 00:33N 53°35' E 008°32'0 0.0
2014-Aug-27 23:32N 53°35' E 008°32'0 0.0
2014-Aug-27 22:30N 53°35' E 008°32'0 0.0
2014-Aug-27 21:32N 53°35' E 008°32'0 0.0
2014-Aug-27 20:32N 53°35' E 008°32'0 0.0
2014-Aug-27 19:29N 53°35' E 008°32'0 0.0
2014-Aug-27 18:32N 53°35' E 008°32'0 0.0
2014-Aug-27 17:29N 53°35' E 008°32'0 0.0
2014-Aug-27 16:32N 53°35' E 008°32'0 0.0
2014-Aug-27 15:26N 53°35' E 008°32'0 0.0
2014-Aug-27 14:32N 53°35' E 008°32'0 0.0
2014-Aug-27 13:06N 53°35' E 008°32'0 0.0
2014-Aug-27 12:32N 53°35' E 008°32'0 0.3
2014-Aug-27 11:34N 53°35' E 008°32'1111.2
2014-Aug-27 10:33N 53°43' E 008°18'9415.7
2014-Aug-27 04:33N 53°37' E 005°40'1615.4
2014-Aug-27 03:32N 53°32' E 005°15'1515.5
2014-Aug-27 02:33N 53°26' E 004°51'2914.8
2014-Aug-27 00:33N 53°02' E 004°23'10713.3
2014-Aug-26 16:31N 51°24' E 003°13'1515.0
2014-Aug-26 15:31N 51°26' E 003°36'1211.6
2014-Aug-26 14:30N 51°21' E 003°54'6 6.3
2014-Aug-26 13:30N 51°22' E 004°04'8 8.5
2014-Aug-26 12:32N 51°20' E 004°16'0 0.2
2014-Aug-26 10:29N 51°20' E 004°17'0 0.0
2014-Aug-26 09:28N 51°20' E 004°17'0 0.0
2014-Aug-26 08:31N 51°20' E 004°17'0 0.0
2014-Aug-26 07:25N 51°20' E 004°17'0 0.0
2014-Aug-26 06:21N 51°20' E 004°17'0 0.0
2014-Aug-26 05:29N 51°20' E 004°17'0 0.0
2014-Aug-26 04:33N 51°20' E 004°17'0 0.0
2014-Aug-26 03:33N 51°20' E 004°17'0 0.0
2014-Aug-26 02:33N 51°20' E 004°17'0 0.0
2014-Aug-26 01:33N 51°20' E 004°17'0 0.0
2014-Aug-26 00:33N 51°20' E 004°17'0 0.0
2014-Aug-25 23:33N 51°20' E 004°17'0 0.0
2014-Aug-25 22:33N 51°20' E 004°17'0 0.0
2014-Aug-25 21:33N 51°20' E 004°17'0 0.0
2014-Aug-25 20:33N 51°20' E 004°17'0 0.0
2014-Aug-25 19:31N 51°20' E 004°17'0 0.0
2014-Aug-25 18:33N 51°20' E 004°17'0 0.0
2014-Aug-25 17:33N 51°20' E 004°17'0 0.0
2014-Aug-25 16:33N 51°20' E 004°17'0 0.0
2014-Aug-25 15:33N 51°20' E 004°17'0 0.0
2014-Aug-25 14:34N 51°20' E 004°17'0 0.0
2014-Aug-25 13:33N 51°20' E 004°17'0 0.0
2014-Aug-25 12:32N 51°20' E 004°17'0 0.0
2014-Aug-25 11:31N 51°20' E 004°17'0 0.0
2014-Aug-25 10:33N 51°20' E 004°17'5 4.5
2014-Aug-25 09:32N 51°24' E 004°12'9 9.3
2014-Aug-25 08:33N 51°24' E 003°58'10 9.5
2014-Aug-25 07:33N 51°25' E 003°42'9 9.4
2014-Aug-25 06:33N 51°25' E 003°27'1413.7
2014-Aug-25 05:33N 51°24' E 003°06'1413.9
2014-Aug-25 04:32N 51°22' E 002°43'4 3.8
2014-Aug-25 03:32N 51°22' E 002°37'1110.8
2014-Aug-25 02:33N 51°19' E 002°20'1515.1
2014-Aug-25 01:34N 51°12' E 001°60'1615.8
2014-Aug-25 00:33N 51°02' E 001°39'6115.0
2014-Aug-24 20:27N 50°22' E 000°26'4514.0
2014-Aug-24 17:14N 50°27' W 000°45'1014.4
2014-Aug-24 16:33N 50°35' W 000°53'1211.7
2014-Aug-24 15:33N 50°44' W 001°04'1111.1
2014-Aug-24 14:33N 50°50' W 001°19'6 6.3
2014-Aug-24 13:33N 50°54' W 001°27'1 0.7
2014-Aug-24 12:33N 50°55' W 001°28'0 0.0
2014-Aug-24 11:33N 50°55' W 001°28'0 0.0
2014-Aug-24 10:32N 50°55' W 001°28'0 0.0
2014-Aug-24 09:32N 50°55' W 001°28'0 0.0
2014-Aug-23 20:32N 50°55' W 001°28'0 0.0
2014-Aug-23 19:32N 50°55' W 001°28'50110.1
2014-Aug-21 18:00N 49°42' W 014°24'42017.5 280 / 181018.510.8 1.017.011.418.0
2014-Aug-20 18:00N 49°00' W 025°06'   070 / 151023.810.8 1.019.015.017.0

Dump ship's entire track history